LiveATC.Net - Listen to live air traffic control over the Internet!


ICAO: WBKK  IATA: BKI   Airport: Kota Kinabalu International Airport
City: Kota Kinabalu
Country: Malaysia   Continent: Asia
WBKK METAR Weather: WBKK 172000Z 11005KT 9999 FEW015 23/19 Q1008 NOSIG
WBKK Flight Activity (FlightAware)

WBKK Gnd/Twr/Radar/Control
Feed Status: UP   Listeners: 3
Listen in your browser - HTML5 player (in browser, HTML5)
Click here to listen with your own player (launches your MP3 player)
Archive Access: WBKK Gnd/Twr/Radar/Control
FacilityFrequency
Kinabalu Director119.100
Kinabalu Ground121.600
Kinabalu Radar126.100
Kinabalu Radar128.300
Kinabalu Radar132.450
Kinabalu Tower118.300

NOTICE

Unauthorized use prohibited. See LiveATC.net Terms of Service


Airport/ARTCC Code
Frequency Search
(e.g., 124.400, 128.75)
Site-wide search
 


Browse Feeds
Top 50 Feeds
HF Oceanic Feeds
Coverage Map
Bad Weather Areas

LiveATC FAQ
Offer LiveATC feed
Contact LiveATC.net
Press Inquiries

LiveATC on iPhone
LiveATC on Android

Windows Phone
Windows 8/10

LiveATC Mobile
(Mobile browser)

ATC Audio Archives
Interesting Recordings

LiveATC Forums


Home Page
About LiveATC.net
Make a Donation
Terms of Use
Privacy Policy

Canadian Air Freqs

AIRMETs/SIGMETs

FAA Airport Status
NAS Status
Arrival Demand


Server Software By:
Icecast.org
Liquidsoap